sensor_id;sensor_type;location;lat;lon;timestamp;pressure;altitude;pressure_sealevel;temperature;humidity
37238;BME280;23129;49.662;8.448;2023-06-14T00:00:16;100208.31;;;19.98;39.01
37238;BME280;23129;49.662;8.448;2023-06-14T00:02:45;100206.94;;;19.92;39.17
37238;BME280;23129;49.662;8.448;2023-06-14T00:05:14;100202.81;;;19.88;39.34
37238;BME280;23129;49.662;8.448;2023-06-14T00:07:43;100202.19;;;19.84;39.47
37238;BME280;23129;49.662;8.448;2023-06-14T00:10:12;100212.91;;;19.83;39.56
37238;BME280;23129;49.662;8.448;2023-06-14T00:12:41;100197.16;;;19.80;39.49
37238;BME280;23129;49.662;8.448;2023-06-14T00:15:10;100204.41;;;19.78;39.62
37238;BME280;23129;49.662;8.448;2023-06-14T00:17:40;100203.66;;;19.76;40.07
37238;BME280;23129;49.662;8.448;2023-06-14T00:20:10;100203.03;;;19.72;40.04
37238;BME280;23129;49.662;8.448;2023-06-14T00:22:39;100211.31;;;19.68;40.14
37238;BME280;23129;49.662;8.448;2023-06-14T00:25:08;100201.06;;;19.61;40.24
37238;BME280;23129;49.662;8.448;2023-06-14T00:27:56;100204.91;;;19.57;40.62
37238;BME280;23129;49.662;8.448;2023-06-14T00:30:25;100205.13;;;19.54;40.54
37238;BME280;23129;49.662;8.448;2023-06-14T00:32:59;100199.06;;;19.52;40.52
37238;BME280;23129;49.662;8.448;2023-06-14T00:35:28;100206.41;;;19.49;40.60
37238;BME280;23129;49.662;8.448;2023-06-14T00:37:57;100214.47;;;19.47;40.89
37238;BME280;23129;49.662;8.448;2023-06-14T00:40:26;100214.69;;;19.44;41.08
37238;BME280;23129;49.662;8.448;2023-06-14T00:42:55;100210.47;;;19.42;40.92
37238;BME280;23129;49.662;8.448;2023-06-14T00:45:24;100213.41;;;19.37;41.44
37238;BME280;23129;49.662;8.448;2023-06-14T00:47:52;100214.47;;;19.34;41.28
37238;BME280;23129;49.662;8.448;2023-06-14T00:50:24;100201.28;;;19.33;41.43
37238;BME280;23129;49.662;8.448;2023-06-14T00:52:53;100203.41;;;19.28;41.50
37238;BME280;23129;49.662;8.448;2023-06-14T00:55:22;100203.63;;;19.25;41.48
37238;BME280;23129;49.662;8.448;2023-06-14T00:57:51;100203.81;;;19.22;41.87
37238;BME280;23129;49.662;8.448;2023-06-14T01:00:19;100209.56;;;19.15;41.73
37238;BME280;23129;49.662;8.448;2023-06-14T01:02:48;100208.03;;;19.11;41.90
37238;BME280;23129;49.662;8.448;2023-06-14T01:05:18;100206.56;;;19.07;41.92
37238;BME280;23129;49.662;8.448;2023-06-14T01:08:10;100202.94;;;19.08;42.13
37238;BME280;23129;49.662;8.448;2023-06-14T01:10:52;100215.69;;;19.03;42.22
37238;BME280;23129;49.662;8.448;2023-06-14T01:13:27;100216.13;;;18.97;42.04
37238;BME280;23129;49.662;8.448;2023-06-14T01:15:56;100223.53;;;18.92;42.31
37238;BME280;23129;49.662;8.448;2023-06-14T01:18:26;100227.16;;;18.91;42.26
37238;BME280;23129;49.662;8.448;2023-06-14T01:20:57;100222.88;;;18.88;42.49
37238;BME280;23129;49.662;8.448;2023-06-14T01:23:26;100221.28;;;18.86;42.73
37238;BME280;23129;49.662;8.448;2023-06-14T01:26:00;100227.56;;;18.85;42.67
37238;BME280;23129;49.662;8.448;2023-06-14T01:28:35;100226.03;;;18.81;42.69
37238;BME280;23129;49.662;8.448;2023-06-14T01:31:04;100228.16;;;18.76;42.50
37238;BME280;23129;49.662;8.448;2023-06-14T01:33:35;100222.09;;;18.74;42.67
37238;BME280;23129;49.662;8.448;2023-06-14T01:36:05;100226.59;;;18.71;43.00
37238;BME280;23129;49.662;8.448;2023-06-14T01:38:37;100226.81;;;18.68;43.02
37238;BME280;23129;49.662;8.448;2023-06-14T01:41:06;100221.69;;;18.65;43.15
37238;BME280;23129;49.662;8.448;2023-06-14T01:43:35;100220.00;;;18.64;42.84
37238;BME280;23129;49.662;8.448;2023-06-14T01:46:05;100209.66;;;18.60;43.17
37238;BME280;23129;49.662;8.448;2023-06-14T01:48:34;100220.41;;;18.58;42.96
37238;BME280;23129;49.662;8.448;2023-06-14T01:51:04;100224.19;;;18.54;43.12
37238;BME280;23129;49.662;8.448;2023-06-14T01:53:32;100225.22;;;18.52;43.14
37238;BME280;23129;49.662;8.448;2023-06-14T01:56:03;100237.78;;;18.50;43.59
37238;BME280;23129;49.662;8.448;2023-06-14T01:58:32;100231.81;;;18.46;43.41
37238;BME280;23129;49.662;8.448;2023-06-14T02:01:01;100232.00;;;18.43;43.58
37238;BME280;23129;49.662;8.448;2023-06-14T02:03:30;100236.75;;;18.38;44.10
37238;BME280;23129;49.662;8.448;2023-06-14T02:05:58;100230.88;;;18.33;43.90
37238;BME280;23129;49.662;8.448;2023-06-14T02:08:28;100235.53;;;18.29;44.12
37238;BME280;23129;49.662;8.448;2023-06-14T02:10:56;100235.72;;;18.26;44.34
37238;BME280;23129;49.662;8.448;2023-06-14T02:13:26;100232.41;;;18.22;44.43
37238;BME280;23129;49.662;8.448;2023-06-14T02:15:55;100231.84;;;18.17;44.64
37238;BME280;23129;49.662;8.448;2023-06-14T02:18:24;100236.50;;;18.14;44.59
37238;BME280;23129;49.662;8.448;2023-06-14T02:20:53;100232.25;;;18.11;45.07
37238;BME280;23129;49.662;8.448;2023-06-14T02:23:22;100230.81;;;18.06;45.17
37238;BME280;23129;49.662;8.448;2023-06-14T02:25:51;100234.50;;;18.03;45.23
37238;BME280;23129;49.662;8.448;2023-06-14T02:28:19;100230.53;;;17.96;45.49
37238;BME280;23129;49.662;8.448;2023-06-14T02:30:49;100234.31;;;17.92;45.47
37238;BME280;23129;49.662;8.448;2023-06-14T02:33:22;100233.75;;;17.87;45.62
37238;BME280;23129;49.662;8.448;2023-06-14T02:35:52;100235.84;;;17.82;45.91
37238;BME280;23129;49.662;8.448;2023-06-14T02:38:21;100235.22;;;17.76;45.82
37238;BME280;23129;49.662;8.448;2023-06-14T02:40:49;100235.41;;;17.73;46.09
37238;BME280;23129;49.662;8.448;2023-06-14T02:43:18;100233.78;;;17.71;46.19
37238;BME280;23129;49.662;8.448;2023-06-14T02:45:48;100237.69;;;17.65;46.51
37238;BME280;23129;49.662;8.448;2023-06-14T02:48:17;100235.25;;;17.62;46.70
37238;BME280;23129;49.662;8.448;2023-06-14T02:50:46;100239.84;;;17.58;46.80
37238;BME280;23129;49.662;8.448;2023-06-14T02:53:15;100240.91;;;17.56;46.87
37238;BME280;23129;49.662;8.448;2023-06-14T02:55:44;100241.09;;;17.53;46.79
37238;BME280;23129;49.662;8.448;2023-06-14T02:58:14;100241.25;;;17.50;47.09
37238;BME280;23129;49.662;8.448;2023-06-14T03:00:43;100242.31;;;17.47;47.18
37238;BME280;23129;49.662;8.448;2023-06-14T03:03:14;100242.50;;;17.44;47.27
37238;BME280;23129;49.662;8.448;2023-06-14T03:05:50;100244.38;;;17.42;47.28
37238;BME280;23129;49.662;8.448;2023-06-14T03:08:23;100251.56;;;17.40;47.50
37238;BME280;23129;49.662;8.448;2023-06-14T03:10:55;100251.66;;;17.39;47.53
37238;BME280;23129;49.662;8.448;2023-06-14T03:13:25;100250.13;;;17.34;47.56
37238;BME280;23129;49.662;8.448;2023-06-14T03:15:54;100245.78;;;17.33;47.54
37238;BME280;23129;49.662;8.448;2023-06-14T03:18:25;100244.94;;;17.33;47.61
37238;BME280;23129;49.662;8.448;2023-06-14T03:20:56;100245.97;;;17.30;47.64
37238;BME280;23129;49.662;8.448;2023-06-14T03:23:27;100249.56;;;17.29;47.79
37238;BME280;23129;49.662;8.448;2023-06-14T03:25:56;100255.03;;;17.26;48.04
37238;BME280;23129;49.662;8.448;2023-06-14T03:28:26;100253.31;;;17.25;48.00
37238;BME280;23129;49.662;8.448;2023-06-14T03:30:56;100259.47;;;17.26;47.97
37238;BME280;23129;49.662;8.448;2023-06-14T03:33:27;100263.91;;;17.25;48.18
37238;BME280;23129;49.662;8.448;2023-06-14T03:35:56;100262.22;;;17.24;48.04
37238;BME280;23129;49.662;8.448;2023-06-14T03:38:25;100258.63;;;17.25;47.99
37238;BME280;23129;49.662;8.448;2023-06-14T03:40:54;100267.53;;;17.24;48.26
37238;BME280;23129;49.662;8.448;2023-06-14T03:43:22;100274.69;;;17.22;48.28
37238;BME280;23129;49.662;8.448;2023-06-14T03:45:51;100280.84;;;17.23;48.19
37238;BME280;23129;49.662;8.448;2023-06-14T03:48:22;100287.88;;;17.24;48.27
37238;BME280;23129;49.662;8.448;2023-06-14T03:50:52;100292.34;;;17.23;48.36
37238;BME280;23129;49.662;8.448;2023-06-14T03:53:26;100292.34;;;17.23;48.12
37238;BME280;23129;49.662;8.448;2023-06-14T03:55:56;100289.59;;;17.25;48.21
37238;BME280;23129;49.662;8.448;2023-06-14T03:58:35;100289.50;;;17.26;48.43
37238;BME280;23129;49.662;8.448;2023-06-14T04:01:04;100293.84;;;17.27;48.37
37238;BME280;23129;49.662;8.448;2023-06-14T04:03:34;100286.84;;;17.26;48.40
37238;BME280;23129;49.662;8.448;2023-06-14T04:06:05;100296.50;;;17.27;48.49
37238;BME280;23129;49.662;8.448;2023-06-14T04:08:35;100299.16;;;17.27;48.16
37238;BME280;23129;49.662;8.448;2023-06-14T04:11:03;100305.31;;;17.28;48.35
37238;BME280;23129;49.662;8.448;2023-06-14T04:13:32;100302.59;;;17.29;48.34
37238;BME280;23129;49.662;8.448;2023-06-14T04:16:02;100308.63;;;17.31;48.22
37238;BME280;23129;49.662;8.448;2023-06-14T04:18:34;100311.09;;;17.34;48.05
37238;BME280;23129;49.662;8.448;2023-06-14T04:21:04;100310.91;;;17.38;48.15
37238;BME280;23129;49.662;8.448;2023-06-14T04:23:33;100317.94;;;17.39;48.02
37238;BME280;23129;49.662;8.448;2023-06-14T04:26:02;100320.44;;;17.42;48.28
37238;BME280;23129;49.662;8.448;2023-06-14T04:28:31;100319.47;;;17.43;48.18
37238;BME280;23129;49.662;8.448;2023-06-14T04:31:02;100324.59;;;17.46;48.16
37238;BME280;23129;49.662;8.448;2023-06-14T04:33:32;100334.19;;;17.48;48.24
37238;BME280;23129;49.662;8.448;2023-06-14T04:36:15;100329.53;;;17.52;48.16
37238;BME280;23129;49.662;8.448;2023-06-14T04:38:47;100338.28;;;17.54;48.29
37238;BME280;23129;49.662;8.448;2023-06-14T04:41:16;100332.78;;;17.57;48.01
37238;BME280;23129;49.662;8.448;2023-06-14T04:43:46;100335.25;;;17.60;48.03
37238;BME280;23129;49.662;8.448;2023-06-14T04:46:16;100342.19;;;17.63;48.16
37238;BME280;23129;49.662;8.448;2023-06-14T04:48:46;100340.09;;;17.68;48.04
37238;BME280;23129;49.662;8.448;2023-06-14T04:51:17;100347.78;;;17.72;48.00
37238;BME280;23129;49.662;8.448;2023-06-14T04:53:48;100342.31;;;17.75;48.23
37238;BME280;23129;49.662;8.448;2023-06-14T04:56:17;100351.81;;;17.79;48.27
37238;BME280;23129;49.662;8.448;2023-06-14T04:58:46;100348.03;;;17.84;47.95
37238;BME280;23129;49.662;8.448;2023-06-14T05:01:15;100345.22;;;17.87;48.16
37238;BME280;23129;49.662;8.448;2023-06-14T05:03:43;100357.34;;;17.91;47.95
37238;BME280;23129;49.662;8.448;2023-06-14T05:06:17;100354.44;;;17.95;48.05
37238;BME280;23129;49.662;8.448;2023-06-14T05:08:46;100359.56;;;17.98;47.78
37238;BME280;23129;49.662;8.448;2023-06-14T05:11:15;100365.53;;;18.02;48.11
37238;BME280;23129;49.662;8.448;2023-06-14T05:13:44;100357.38;;;18.05;47.90
37238;BME280;23129;49.662;8.448;2023-06-14T05:16:14;100351.75;;;18.10;48.11
37238;BME280;23129;49.662;8.448;2023-06-14T05:18:46;100358.63;;;18.14;47.82
37238;BME280;23129;49.662;8.448;2023-06-14T05:21:17;100359.28;;;18.17;48.12
37238;BME280;23129;49.662;8.448;2023-06-14T05:23:46;100363.44;;;18.21;47.83
37238;BME280;23129;49.662;8.448;2023-06-14T05:26:14;100364.97;;;18.25;47.93
37238;BME280;23129;49.662;8.448;2023-06-14T05:28:43;100365.53;;;18.31;47.82
37238;BME280;23129;49.662;8.448;2023-06-14T05:31:12;100367.91;;;18.35;47.74
37238;BME280;23129;49.662;8.448;2023-06-14T05:33:41;100372.19;;;18.38;47.85
37238;BME280;23129;49.662;8.448;2023-06-14T05:36:09;100373.63;;;18.43;47.88
37238;BME280;23129;49.662;8.448;2023-06-14T05:38:39;100375.91;;;18.50;47.71
37238;BME280;23129;49.662;8.448;2023-06-14T05:41:08;100373.91;;;18.53;47.85
37238;BME280;23129;49.662;8.448;2023-06-14T05:43:36;100380.63;;;18.59;47.80
37238;BME280;23129;49.662;8.448;2023-06-14T05:46:05;100377.69;;;18.63;47.60
37238;BME280;23129;49.662;8.448;2023-06-14T05:48:34;100372.94;;;18.68;47.73
37238;BME280;23129;49.662;8.448;2023-06-14T05:51:02;100378.66;;;18.77;47.66
37238;BME280;23129;49.662;8.448;2023-06-14T05:53:31;100378.47;;;18.80;47.44
37238;BME280;23129;49.662;8.448;2023-06-14T05:56:01;100388.72;;;18.86;47.72
37238;BME280;23129;49.662;8.448;2023-06-14T05:58:29;100385.75;;;18.90;47.34
37238;BME280;23129;49.662;8.448;2023-06-14T06:00:58;100390.69;;;18.97;47.29
37238;BME280;23129;49.662;8.448;2023-06-14T06:03:27;100391.25;;;19.02;47.53
37238;BME280;23129;49.662;8.448;2023-06-14T06:05:57;100391.69;;;19.08;47.20
37238;BME280;23129;49.662;8.448;2023-06-14T06:08:26;100392.25;;;19.13;47.30
37238;BME280;23129;49.662;8.448;2023-06-14T06:10:55;100392.63;;;19.22;47.13
37238;BME280;23129;49.662;8.448;2023-06-14T06:13:25;100394.69;;;19.31;47.34
37238;BME280;23129;49.662;8.448;2023-06-14T06:15:53;100394.28;;;19.37;47.19
37238;BME280;23129;49.662;8.448;2023-06-14T06:18:23;100404.53;;;19.43;47.14
37238;BME280;23129;49.662;8.448;2023-06-14T06:20:52;100396.06;;;19.51;46.80
37238;BME280;23129;49.662;8.448;2023-06-14T06:23:21;100394.78;;;19.56;46.72
37238;BME280;23129;49.662;8.448;2023-06-14T06:25:49;100406.94;;;19.60;46.93
37238;BME280;23129;49.662;8.448;2023-06-14T06:28:19;100406.56;;;19.67;46.64
37238;BME280;23129;49.662;8.448;2023-06-14T06:30:49;100412.44;;;19.72;46.65
37238;BME280;23129;49.662;8.448;2023-06-14T06:33:18;100414.69;;;19.78;46.66
37238;BME280;23129;49.662;8.448;2023-06-14T06:35:46;100414.28;;;19.84;46.52
37238;BME280;23129;49.662;8.448;2023-06-14T06:38:15;100412.13;;;19.89;46.31
37238;BME280;23129;49.662;8.448;2023-06-14T06:40:45;100416.41;;;19.92;46.23
37238;BME280;23129;49.662;8.448;2023-06-14T06:43:14;100420.59;;;19.96;46.21
37238;BME280;23129;49.662;8.448;2023-06-14T06:45:48;100431.75;;;20.01;46.00
37238;BME280;23129;49.662;8.448;2023-06-14T06:48:17;100423.47;;;20.05;45.84
37238;BME280;23129;49.662;8.448;2023-06-14T06:50:46;100423.06;;;20.12;45.62
37238;BME280;23129;49.662;8.448;2023-06-14T06:53:14;100425.31;;;20.18;45.68
37238;BME280;23129;49.662;8.448;2023-06-14T06:55:56;100424.66;;;20.27;45.50
37238;BME280;23129;49.662;8.448;2023-06-14T06:58:25;100425.22;;;20.32;45.44
37238;BME280;23129;49.662;8.448;2023-06-14T07:00:55;100433.53;;;20.40;45.33
37238;BME280;23129;49.662;8.448;2023-06-14T07:03:24;100433.00;;;20.48;45.53
37238;BME280;23129;49.662;8.448;2023-06-14T07:05:53;100438.78;;;20.55;45.12
37238;BME280;23129;49.662;8.448;2023-06-14T07:08:21;100436.66;;;20.60;45.04
37238;BME280;23129;49.662;8.448;2023-06-14T07:10:50;100437.06;;;20.66;44.83
37238;BME280;23129;49.662;8.448;2023-06-14T07:13:18;100439.41;;;20.71;44.89
37238;BME280;23129;49.662;8.448;2023-06-14T07:15:47;100441.66;;;20.77;44.55
37238;BME280;23129;49.662;8.448;2023-06-14T07:18:17;100440.25;;;20.84;44.56
37238;BME280;23129;49.662;8.448;2023-06-14T07:20:46;100439.72;;;20.92;44.36
37238;BME280;23129;49.662;8.448;2023-06-14T07:23:15;100440.97;;;20.99;44.28
37238;BME280;23129;49.662;8.448;2023-06-14T07:25:43;100443.09;;;21.07;44.12
37238;BME280;23129;49.662;8.448;2023-06-14T07:28:12;100446.28;;;21.12;43.91
37238;BME280;23129;49.662;8.448;2023-06-14T07:30:41;100451.41;;;21.15;43.76
37238;BME280;23129;49.662;8.448;2023-06-14T07:33:09;100447.34;;;21.22;43.68
37238;BME280;23129;49.662;8.448;2023-06-14T07:35:41;100443.00;;;21.32;43.67
37238;BME280;23129;49.662;8.448;2023-06-14T07:38:10;100443.88;;;21.46;43.50
37238;BME280;23129;49.662;8.448;2023-06-14T07:40:39;100454.88;;;21.65;43.33
37238;BME280;23129;49.662;8.448;2023-06-14T07:43:07;100445.03;;;21.89;42.95
37238;BME280;23129;49.662;8.448;2023-06-14T07:45:37;100448.59;;;22.25;42.85
37238;BME280;23129;49.662;8.448;2023-06-14T07:48:12;100447.09;;;22.90;42.04
37238;BME280;23129;49.662;8.448;2023-06-14T07:50:42;100453.31;;;23.79;40.62
37238;BME280;23129;49.662;8.448;2023-06-14T07:53:10;100460.44;;;24.74;39.13
37238;BME280;23129;49.662;8.448;2023-06-14T07:55:39;100453.97;;;25.57;38.40
37238;BME280;23129;49.662;8.448;2023-06-14T07:58:19;100447.75;;;26.34;37.46
37238;BME280;23129;49.662;8.448;2023-06-14T08:00:48;100449.00;;;26.97;36.82
37238;BME280;23129;49.662;8.448;2023-06-14T08:03:16;100442.84;;;27.42;36.07
37238;BME280;23129;49.662;8.448;2023-06-14T08:05:47;100443.81;;;27.86;35.78
37238;BME280;23129;49.662;8.448;2023-06-14T08:08:16;100440.56;;;28.18;35.24
37238;BME280;23129;49.662;8.448;2023-06-14T08:10:45;100443.44;;;28.43;34.70
37238;BME280;23129;49.662;8.448;2023-06-14T08:13:13;100437.34;;;28.67;34.58
37238;BME280;23129;49.662;8.448;2023-06-14T08:15:42;100441.00;;;28.84;33.96
37238;BME280;23129;49.662;8.448;2023-06-14T08:18:11;100447.84;;;29.04;33.95
37238;BME280;23129;49.662;8.448;2023-06-14T08:20:39;100442.69;;;29.27;33.12
37238;BME280;23129;49.662;8.448;2023-06-14T08:23:09;100438.53;;;29.41;33.28
37238;BME280;23129;49.662;8.448;2023-06-14T08:25:38;100439.50;;;29.40;32.82
37238;BME280;23129;49.662;8.448;2023-06-14T08:28:07;100445.94;;;29.39;32.93
37238;BME280;23129;49.662;8.448;2023-06-14T08:30:36;100441.03;;;29.43;32.46
37238;BME280;23129;49.662;8.448;2023-06-14T08:33:04;100435.47;;;29.52;32.26
37238;BME280;23129;49.662;8.448;2023-06-14T08:35:43;100437.69;;;29.57;32.25
37238;BME280;23129;49.662;8.448;2023-06-14T08:38:13;100434.78;;;29.34;32.25
37238;BME280;23129;49.662;8.448;2023-06-14T08:40:43;100436.38;;;29.10;32.21
37238;BME280;23129;49.662;8.448;2023-06-14T08:43:13;100443.13;;;29.06;32.39
37238;BME280;23129;49.662;8.448;2023-06-14T08:45:42;100444.16;;;29.05;31.93
37238;BME280;23129;49.662;8.448;2023-06-14T08:48:11;100443.13;;;29.06;32.14
37238;BME280;23129;49.662;8.448;2023-06-14T08:50:45;100438.09;;;29.11;31.90
37238;BME280;23129;49.662;8.448;2023-06-14T08:53:17;100437.41;;;29.09;31.67
37238;BME280;23129;49.662;8.448;2023-06-14T08:55:48;100434.75;;;29.18;31.51
37238;BME280;23129;49.662;8.448;2023-06-14T08:58:17;100435.72;;;29.17;31.35
37238;BME280;23129;49.662;8.448;2023-06-14T09:00:47;100445.38;;;29.19;31.07
37238;BME280;23129;49.662;8.448;2023-06-14T09:03:17;100444.22;;;29.30;30.63
37238;BME280;23129;49.662;8.448;2023-06-14T09:05:48;100430.56;;;29.40;30.70
37238;BME280;23129;49.662;8.448;2023-06-14T09:08:18;100443.47;;;29.70;30.02
37238;BME280;23129;49.662;8.448;2023-06-14T09:10:50;100440.16;;;30.01;29.72
37238;BME280;23129;49.662;8.448;2023-06-14T09:13:19;100440.66;;;30.21;29.47
37238;BME280;23129;49.662;8.448;2023-06-14T09:15:48;100438.97;;;30.28;29.17
37238;BME280;23129;49.662;8.448;2023-06-14T09:18:16;100443.69;;;30.26;28.73
37238;BME280;23129;49.662;8.448;2023-06-14T09:20:47;100442.66;;;30.35;28.54
37238;BME280;23129;49.662;8.448;2023-06-14T09:23:21;100443.34;;;30.45;28.32
37238;BME280;23129;49.662;8.448;2023-06-14T09:25:50;100449.75;;;30.44;28.46
37238;BME280;23129;49.662;8.448;2023-06-14T09:28:20;100447.88;;;30.53;27.97
37238;BME280;23129;49.662;8.448;2023-06-14T09:30:55;100456.34;;;30.66;27.85
37238;BME280;23129;49.662;8.448;2023-06-14T09:33:24;100453.56;;;30.91;27.62
37238;BME280;23129;49.662;8.448;2023-06-14T09:35:54;100451.94;;;31.13;26.90
37238;BME280;23129;49.662;8.448;2023-06-14T09:38:25;100455.47;;;31.22;26.65
37238;BME280;23129;49.662;8.448;2023-06-14T09:40:58;100459.03;;;31.14;26.61
37238;BME280;23129;49.662;8.448;2023-06-14T09:43:27;100454.66;;;31.13;26.52
37238;BME280;23129;49.662;8.448;2023-06-14T09:45:56;100453.06;;;31.27;26.32
37238;BME280;23129;49.662;8.448;2023-06-14T09:48:25;100452.16;;;31.43;26.03
37238;BME280;23129;49.662;8.448;2023-06-14T09:50:55;100453.47;;;31.47;26.41
37238;BME280;23129;49.662;8.448;2023-06-14T09:53:30;100448.81;;;31.64;25.95
37238;BME280;23129;49.662;8.448;2023-06-14T09:55:59;100451.22;;;31.81;25.86
37238;BME280;23129;49.662;8.448;2023-06-14T09:58:28;100449.28;;;31.98;25.82
37238;BME280;23129;49.662;8.448;2023-06-14T10:00:59;100443.88;;;32.13;25.52
37238;BME280;23129;49.662;8.448;2023-06-14T10:03:29;100449.38;;;32.43;25.38
37238;BME280;23129;49.662;8.448;2023-06-14T10:06:17;100452.81;;;32.37;25.24
37238;BME280;23129;49.662;8.448;2023-06-14T10:08:48;100440.34;;;32.27;25.40
37238;BME280;23129;49.662;8.448;2023-06-14T10:11:17;100449.78;;;32.17;25.30
37238;BME280;23129;49.662;8.448;2023-06-14T10:13:47;100447.97;;;32.09;25.52
37238;BME280;23129;49.662;8.448;2023-06-14T10:16:19;100449.13;;;32.15;25.28
37238;BME280;23129;49.662;8.448;2023-06-14T10:18:54;100441.47;;;32.33;24.99
37238;BME280;23129;49.662;8.448;2023-06-14T10:21:36;100446.72;;;32.35;24.70
37238;BME280;23129;49.662;8.448;2023-06-14T10:24:09;100448.50;;;32.42;24.79
37238;BME280;23129;49.662;8.448;2023-06-14T10:26:51;100449.41;;;32.72;24.61
37238;BME280;23129;49.662;8.448;2023-06-14T10:29:22;100445.47;;;32.90;24.29
37238;BME280;23129;49.662;8.448;2023-06-14T10:31:56;100448.84;;;33.22;24.16
37238;BME280;23129;49.662;8.448;2023-06-14T10:34:25;100443.03;;;33.61;23.71
37238;BME280;23129;49.662;8.448;2023-06-14T10:37:03;100452.81;;;33.55;23.62
37238;BME280;23129;49.662;8.448;2023-06-14T10:39:39;100448.75;;;33.30;23.70
37238;BME280;23129;49.662;8.448;2023-06-14T10:42:09;100450.34;;;33.24;23.69
37238;BME280;23129;49.662;8.448;2023-06-14T10:44:43;100438.53;;;33.02;23.80
37238;BME280;23129;49.662;8.448;2023-06-14T10:47:23;100454.56;;;32.82;24.06
37238;BME280;23129;49.662;8.448;2023-06-14T10:49:54;100453.06;;;32.80;23.63
37238;BME280;23129;49.662;8.448;2023-06-14T10:52:27;100455.22;;;32.99;23.67
37238;BME280;23129;49.662;8.448;2023-06-14T10:55:12;100445.63;;;33.33;23.13
37238;BME280;23129;49.662;8.448;2023-06-14T10:57:44;100447.75;;;33.52;22.88
37238;BME280;23129;49.662;8.448;2023-06-14T11:00:20;100445.44;;;33.71;22.78
37238;BME280;23129;49.662;8.448;2023-06-14T11:03:36;100445.19;;;34.08;22.58
37238;BME280;23129;49.662;8.448;2023-06-14T11:06:14;100442.56;;;34.00;22.67
37238;BME280;23129;49.662;8.448;2023-06-14T11:12:10;100442.00;;;33.47;22.89
37238;BME280;23129;49.662;8.448;2023-06-14T11:14:39;100441.00;;;32.67;23.71
37238;BME280;23129;49.662;8.448;2023-06-14T11:17:08;100452.81;;;31.99;24.29
37238;BME280;23129;49.662;8.448;2023-06-14T11:19:37;100446.34;;;31.54;24.44
37238;BME280;23129;49.662;8.448;2023-06-14T11:22:06;100447.28;;;31.30;24.86
37238;BME280;23129;49.662;8.448;2023-06-14T11:24:35;100448.91;;;31.08;24.54
37238;BME280;23129;49.662;8.448;2023-06-14T11:27:04;100443.34;;;31.01;24.86
37238;BME280;23129;49.662;8.448;2023-06-14T11:29:34;100450.41;;;30.79;24.81
37238;BME280;23129;49.662;8.448;2023-06-14T11:32:07;100446.63;;;30.88;24.91
37238;BME280;23129;49.662;8.448;2023-06-14T11:34:39;100446.81;;;31.26;24.42
37238;BME280;23129;49.662;8.448;2023-06-14T11:37:08;100449.53;;;31.26;24.29
37238;BME280;23129;49.662;8.448;2023-06-14T11:39:37;100457.75;;;31.02;24.79
37238;BME280;23129;49.662;8.448;2023-06-14T11:42:14;100451.22;;;30.71;25.03
37238;BME280;23129;49.662;8.448;2023-06-14T11:44:46;100452.47;;;30.44;24.92
37238;BME280;23129;49.662;8.448;2023-06-14T11:47:17;100452.16;;;30.23;25.52
37238;BME280;23129;49.662;8.448;2023-06-14T11:49:46;100440.25;;;30.57;24.80
37238;BME280;23129;49.662;8.448;2023-06-14T11:52:16;100447.16;;;31.23;24.18
37238;BME280;23129;49.662;8.448;2023-06-14T11:54:45;100436.59;;;31.91;23.60
37238;BME280;23129;49.662;8.448;2023-06-14T11:57:18;100433.47;;;32.69;23.16
37238;BME280;23129;49.662;8.448;2023-06-14T11:59:49;100430.59;;;33.01;23.14
37238;BME280;23129;49.662;8.448;2023-06-14T12:02:19;100433.28;;;32.86;23.17
37238;BME280;23129;49.662;8.448;2023-06-14T12:04:51;100432.13;;;32.36;23.60
37238;BME280;23129;49.662;8.448;2023-06-14T12:07:22;100433.38;;;31.87;24.23
37238;BME280;23129;49.662;8.448;2023-06-14T12:10:07;100434.22;;;31.88;24.07
37238;BME280;23129;49.662;8.448;2023-06-14T12:12:39;100436.81;;;32.42;23.42
37238;BME280;23129;49.662;8.448;2023-06-14T12:15:10;100433.84;;;32.96;23.12
37238;BME280;23129;49.662;8.448;2023-06-14T12:17:41;100437.03;;;33.14;22.95
37238;BME280;23129;49.662;8.448;2023-06-14T12:20:12;100438.81;;;32.78;22.97
37238;BME280;23129;49.662;8.448;2023-06-14T12:22:51;100435.88;;;32.35;23.49
37238;BME280;23129;49.662;8.448;2023-06-14T12:25:29;100432.66;;;32.16;23.58
37238;BME280;23129;49.662;8.448;2023-06-14T12:28:04;100432.25;;;32.72;23.01
37238;BME280;23129;49.662;8.448;2023-06-14T12:30:35;100436.56;;;33.47;22.47
37238;BME280;23129;49.662;8.448;2023-06-14T12:33:04;100424.28;;;34.16;21.95
37238;BME280;23129;49.662;8.448;2023-06-14T12:35:35;100418.38;;;34.62;21.58
37238;BME280;23129;49.662;8.448;2023-06-14T12:38:03;100425.19;;;34.23;21.71
37238;BME280;23129;49.662;8.448;2023-06-14T12:40:32;100425.38;;;33.72;22.13
37238;BME280;23129;49.662;8.448;2023-06-14T12:43:01;100425.22;;;33.22;22.65
37238;BME280;23129;49.662;8.448;2023-06-14T12:45:31;100430.66;;;32.78;22.98
37238;BME280;23129;49.662;8.448;2023-06-14T12:48:01;100429.31;;;32.44;23.14
37238;BME280;23129;49.662;8.448;2023-06-14T12:50:29;100436.47;;;32.07;23.40
37238;BME280;23129;49.662;8.448;2023-06-14T12:52:58;100429.88;;;31.78;23.41
37238;BME280;23129;49.662;8.448;2023-06-14T12:55:27;100437.06;;;31.48;24.13
37238;BME280;23129;49.662;8.448;2023-06-14T12:57:55;100438.56;;;31.74;23.76
37238;BME280;23129;49.662;8.448;2023-06-14T13:00:24;100432.19;;;32.27;23.24
37238;BME280;23129;49.662;8.448;2023-06-14T13:02:54;100418.66;;;32.87;22.65
37238;BME280;23129;49.662;8.448;2023-06-14T13:05:24;100442.91;;;33.33;22.38
37238;BME280;23129;49.662;8.448;2023-06-14T13:07:53;100433.47;;;33.86;21.96
37238;BME280;23129;49.662;8.448;2023-06-14T13:10:21;100436.69;;;34.46;21.34